Time;durP1;ratioP1;P1;durP2;ratioP2;P2;SDS_P1;SDS_P2;PMS_P1;PMS_P2;Temp;Humidity;BMP_temperature;BMP_pressure;BME280_temperature;BME280_humidity;BME280_pressure;Samples;Min_cycle;Max_cycle;Signal;HPM_P1;HPM_P2
2021/01/04 05:02:15;;;;;;;1.48;1.48;;;4.30;99.90;;;;;;5126794;23;20242;-73
2021/01/04 05:04:59;;;;;;;1.30;1.30;;;4.30;99.90;;;;;;4900589;29;20206;-71
2021/01/04 05:07:41;;;;;;;1.23;1.13;;;4.30;99.90;;;;;;4903964;29;20210;-71
2021/01/04 05:10:11;;;;;;;1.95;1.50;;;4.30;99.90;;;;;;4904237;29;20202;-71
2021/01/04 05:12:42;;;;;;;1.52;1.35;;;4.30;99.90;;;;;;4894616;29;20201;-71
2021/01/04 05:15:25;;;;;;;3.90;2.03;;;4.40;99.90;;;;;;4884304;29;20214;-71
2021/01/04 05:18:18;;;;;;;1.33;1.23;;;4.40;99.90;;;;;;4879444;29;20573;-71
2021/01/04 05:21:20;;;;;;;0.95;0.95;;;4.40;99.90;;;;;;4893655;29;20223;-72
2021/01/04 05:24:26;;;;;;;1.27;1.10;;;4.40;99.90;;;;;;4853688;29;20202;-72
2021/01/04 05:27:25;;;;;;;1.05;1.05;;;4.40;99.90;;;;;;4878965;29;20218;-72
2021/01/04 05:30:19;;;;;;;1.10;1.10;;;4.30;99.90;;;;;;4880867;29;20264;-71
2021/01/04 05:33:18;;;;;;;1.27;1.13;;;4.30;99.90;;;;;;4870105;29;20276;-72
2021/01/04 05:35:46;;;;;;;1.50;1.35;;;4.30;99.90;;;;;;4879208;29;20276;-71
2021/01/04 05:38:24;;;;;;;0.70;0.70;;;4.20;99.90;;;;;;4881110;29;20234;-72
2021/01/04 05:41:11;;;;;;;1.40;0.90;;;4.20;99.90;;;;;;4885303;29;20223;-71
2021/01/04 05:43:52;;;;;;;1.65;1.55;;;4.10;99.90;;;;;;4890290;29;20259;-72
2021/01/04 05:46:24;;;;;;;1.30;1.30;;;4.10;99.90;;;;;;4891646;29;20211;-72
2021/01/04 05:49:05;;;;;;;1.38;1.38;;;4.10;99.90;;;;;;4897377;29;20203;-71
2021/01/04 05:51:35;;;;;;;0.82;0.82;;;4.10;99.90;;;;;;4879267;29;20284;-72
2021/01/04 05:54:02;;;;;;;2.75;1.08;;;4.00;99.90;;;;;;4885594;29;20660;-72
2021/01/04 05:56:31;;;;;;;2.30;1.00;;;4.00;99.90;;;;;;4878922;29;20234;-71
2021/01/04 05:59:07;;;;;;;2.20;1.00;;;4.00;99.90;;;;;;4879636;29;20400;-72
2021/01/04 06:01:34;;;;;;;1.65;1.55;;;4.00;99.90;;;;;;4892553;29;20239;-71
2021/01/04 06:04:03;;;;;;;1.90;1.33;;;4.00;99.90;;;;;;4897143;29;20215;-71
2021/01/04 06:06:34;;;;;;;0.73;0.73;;;3.90;99.90;;;;;;4890472;29;20208;-72
2021/01/04 06:09:04;;;;;;;0.98;0.98;;;3.90;99.90;;;;;;4878647;29;20195;-71
2021/01/04 06:11:30;;;;;;;1.15;1.15;;;3.90;99.90;;;;;;4894617;29;20238;-71
2021/01/04 06:14:02;;;;;;;1.10;1.10;;;3.90;99.90;;;;;;4897544;29;20215;-71
2021/01/04 06:16:29;;;;;;;1.00;1.00;;;3.80;99.90;;;;;;4896435;29;20210;-72
2021/01/04 06:18:58;;;;;;;1.17;1.17;;;3.80;99.90;;;;;;4879337;29;20272;-71
2021/01/04 06:21:38;;;;;;;1.10;1.10;;;3.80;99.90;;;;;;4878077;29;20228;-71
2021/01/04 06:24:05;;;;;;;3.47;1.17;;;3.80;99.90;;;;;;4884983;29;20262;-71
2021/01/04 06:26:32;;;;;;;1.10;1.10;;;3.80;99.90;;;;;;4895880;29;20557;-71
2021/01/04 06:29:01;;;;;;;1.73;1.58;;;3.80;99.90;;;;;;4893508;29;20247;-71
2021/01/04 06:31:35;;;;;;;4.95;1.45;;;3.80;99.90;;;;;;4884357;29;20227;-71
2021/01/04 06:34:04;;;;;;;2.40;1.58;;;3.90;99.90;;;;;;4881083;29;20571;-71
2021/01/04 06:36:36;;;;;;;1.00;1.00;;;3.90;99.90;;;;;;4892850;29;20259;-71
2021/01/04 06:39:16;;;;;;;1.00;1.00;;;3.80;99.90;;;;;;4892045;29;20771;-71
2021/01/04 06:41:43;;;;;;;1.30;1.30;;;3.90;99.90;;;;;;4897938;29;20332;-70
2021/01/04 06:44:12;;;;;;;4.97;1.40;;;3.90;99.90;;;;;;4893023;29;20252;-69
2021/01/04 06:46:57;;;;;;;2.67;1.55;;;3.90;99.90;;;;;;4898985;29;20215;-70
2021/01/04 06:49:27;;;;;;;3.88;1.70;;;3.90;99.90;;;;;;4883912;29;20209;-71
2021/01/04 06:52:21;;;;;;;1.40;1.40;;;3.90;99.90;;;;;;4880747;29;20558;-69
2021/01/04 06:55:05;;;;;;;1.08;1.08;;;3.90;99.90;;;;;;4893192;29;20259;-69
2021/01/04 06:58:01;;;;;;;1.60;1.50;;;4.00;99.90;;;;;;4893656;29;20223;-69
2021/01/04 07:00:35;;;;;;;0.90;0.90;;;4.00;99.90;;;;;;4895566;29;20231;-68
2021/01/04 07:03:31;;;;;;;1.10;1.10;;;3.90;99.90;;;;;;4881656;29;20628;-68
2021/01/04 07:06:43;;;;;;;1.15;1.13;;;3.90;99.90;;;;;;4865679;29;20231;-69
2021/01/04 07:09:53;;;;;;;2.70;2.38;;;4.00;99.90;;;;;;4886462;29;20207;-69
2021/01/04 07:12:30;;;;;;;1.35;1.35;;;3.90;99.90;;;;;;4881620;29;20224;-69
2021/01/04 07:15:14;;;;;;;2.08;1.88;;;3.90;99.90;;;;;;4891783;29;20215;-69
2021/01/04 07:18:08;;;;;;;2.05;1.20;;;3.90;99.90;;;;;;4900291;29;20242;-69
2021/01/04 07:20:56;;;;;;;1.92;1.77;;;3.90;99.90;;;;;;4864122;29;20715;-69
2021/01/04 07:23:40;;;;;;;3.38;1.42;;;3.90;99.90;;;;;;4880850;29;20287;-69
2021/01/04 07:26:19;;;;;;;0.85;0.85;;;3.90;99.90;;;;;;4881299;29;20676;-69
2021/01/04 07:29:30;;;;;;;1.40;1.27;;;3.80;99.90;;;;;;4884787;29;20232;-70
2021/01/04 07:32:03;;;;;;;0.85;0.85;;;3.80;99.90;;;;;;4882940;29;20247;-70
2021/01/04 07:34:34;;;;;;;2.10;1.00;;;3.80;99.90;;;;;;4880600;29;20220;-70
2021/01/04 07:37:20;;;;;;;1.02;1.02;;;3.80;99.90;;;;;;4881346;29;20259;-69
2021/01/04 07:39:49;;;;;;;2.00;2.00;;;3.80;99.90;;;;;;4887235;29;20204;-70
2021/01/04 07:42:46;;;;;;;6.00;2.40;;;3.80;99.90;;;;;;4873595;29;20243;-70
2021/01/04 07:45:29;;;;;;;1.20;1.08;;;3.70;99.90;;;;;;4871086;29;20247;-70
2021/01/04 07:48:37;;;;;;;3.03;1.45;;;3.70;99.90;;;;;;4882906;29;20568;-70
2021/01/04 07:51:41;;;;;;;4.05;1.75;;;3.70;99.90;;;;;;4891564;29;20235;-70
2021/01/04 07:54:32;;;;;;;1.27;1.25;;;3.70;99.90;;;;;;4866066;29;20231;-69
2021/01/04 07:57:49;;;;;;;1.38;1.38;;;3.70;99.90;;;;;;4897499;29;20574;-69
2021/01/04 08:00:46;;;;;;;1.50;1.40;;;3.70;99.90;;;;;;4892644;29;20226;-69
2021/01/04 08:03:38;;;;;;;1.23;1.23;;;3.70;99.90;;;;;;4891709;29;20207;-68
2021/01/04 08:06:48;;;;;;;1.35;1.25;;;3.70;99.90;;;;;;4892185;29;20211;-69
2021/01/04 08:09:25;;;;;;;1.75;1.40;;;3.70;99.90;;;;;;4878300;29;20204;-69
2021/01/04 08:12:12;;;;;;;1.42;1.20;;;3.70;99.90;;;;;;4879710;29;20742;-69
2021/01/04 08:15:15;;;;;;;1.85;1.75;;;3.70;99.90;;;;;;4887220;29;20683;-70
2021/01/04 08:17:50;;;;;;;1.52;1.40;;;3.70;99.90;;;;;;4888347;29;20223;-70
2021/01/04 08:20:17;;;;;;;1.20;1.10;;;3.70;99.90;;;;;;4894690;29;20214;-70
2021/01/04 08:23:04;;;;;;;2.38;1.98;;;3.70;99.90;;;;;;4886772;29;20285;-70
2021/01/04 08:25:46;;;;;;;1.50;1.42;;;3.70;99.90;;;;;;4889734;29;20633;-70
2021/01/04 08:28:23;;;;;;;1.73;1.60;;;3.70;99.90;;;;;;4894101;29;20223;-69
2021/01/04 08:30:57;;;;;;;1.38;1.38;;;3.70;99.90;;;;;;4884929;29;20584;-70
2021/01/04 08:33:32;;;;;;;1.67;1.48;;;3.70;99.90;;;;;;4879354;29;20207;-70
2021/01/04 08:35:59;;;;;;;1.35;1.35;;;3.70;99.90;;;;;;4878993;29;20211;-70
2021/01/04 08:38:36;;;;;;;1.42;1.42;;;3.80;99.90;;;;;;4879245;29;20239;-70
2021/01/04 08:41:08;;;;;;;1.50;1.50;;;3.80;99.90;;;;;;4878355;29;20282;-70
2021/01/04 08:43:39;;;;;;;2.33;1.52;;;3.70;99.90;;;;;;4878192;29;20678;-71
2021/01/04 08:46:27;;;;;;;1.30;1.20;;;3.70;99.90;;;;;;4885317;29;20211;-70
2021/01/04 08:48:57;;;;;;;2.47;2.38;;;3.80;99.90;;;;;;4895436;29;20211;-70
2021/01/04 08:51:33;;;;;;;1.95;1.77;;;3.80;99.90;;;;;;4884659;29;20711;-70
2021/01/04 08:54:03;;;;;;;1.77;1.60;;;3.80;99.90;;;;;;4897556;29;20218;-70
2021/01/04 08:56:33;;;;;;;2.00;1.90;;;3.80;99.90;;;;;;4895533;29;20203;-70
2021/01/04 08:59:09;;;;;;;1.35;1.35;;;3.80;99.90;;;;;;4896195;29;20231;-70
2021/01/04 09:01:41;;;;;;;2.65;1.88;;;3.80;99.90;;;;;;4884827;29;20235;-69
2021/01/04 09:04:11;;;;;;;1.38;1.38;;;3.80;99.90;;;;;;4895222;29;20218;-69
2021/01/04 09:06:41;;;;;;;1.55;1.55;;;3.80;99.90;;;;;;4879405;29;20228;-70
2021/01/04 09:09:17;;;;;;;1.67;1.58;;;3.80;99.90;;;;;;4881431;29;20223;-70
2021/01/04 09:11:57;;;;;;;3.10;2.05;;;3.80;99.90;;;;;;4896504;29;20230;-69
2021/01/04 09:14:28;;;;;;;3.00;2.25;;;3.90;99.90;;;;;;4893527;29;20207;-69
2021/01/04 09:16:54;;;;;;;2.33;1.60;;;3.90;99.90;;;;;;4879278;29;20234;-70
2021/01/04 09:19:31;;;;;;;2.20;2.10;;;3.90;99.90;;;;;;4881290;29;20223;-69
2021/01/04 09:22:09;;;;;;;6.40;1.42;;;3.90;99.90;;;;;;4896145;29;20235;-70
2021/01/04 09:24:39;;;;;;;1.05;1.05;;;3.90;99.90;;;;;;4889411;29;20629;-70
2021/01/04 09:27:18;;;;;;;2.80;2.28;;;3.90;99.90;;;;;;4878972;29;20220;-69
2021/01/04 09:29:50;;;;;;;2.13;2.00;;;3.90;99.90;;;;;;4890019;29;20731;-69
2021/01/04 09:32:19;;;;;;;2.50;1.80;;;3.90;99.90;;;;;;4897124;29;20258;-69
2021/01/04 09:34:46;;;;;;;1.73;1.25;;;3.90;99.90;;;;;;4879986;29;20212;-70
2021/01/04 09:37:22;;;;;;;1.92;1.80;;;3.90;99.90;;;;;;4878344;29;20208;-70
2021/01/04 09:39:48;;;;;;;1.98;1.75;;;3.90;99.90;;;;;;4888895;29;20207;-69
2021/01/04 09:42:21;;;;;;;3.22;1.98;;;3.90;99.90;;;;;;4878275;29;20242;-69
2021/01/04 09:44:47;;;;;;;5.90;1.30;;;3.90;99.90;;;;;;4894089;29;20254;-70
2021/01/04 09:47:22;;;;;;;3.60;1.42;;;3.90;99.90;;;;;;4893304;29;20212;-70
2021/01/04 09:49:54;;;;;;;2.65;1.50;;;3.90;99.90;;;;;;4896593;29;20218;-69
2021/01/04 09:52:24;;;;;;;1.45;1.35;;;4.00;99.90;;;;;;4896457;29;20242;-69
2021/01/04 09:54:54;;;;;;;2.60;1.70;;;4.00;99.90;;;;;;4896427;29;20222;-69
2021/01/04 09:57:22;;;;;;;1.50;1.40;;;4.00;99.90;;;;;;4887847;29;20207;-69
2021/01/04 09:59:50;;;;;;;3.90;1.50;;;4.00;99.90;;;;;;4879409;29;20200;-69
2021/01/04 10:02:22;;;;;;;1.58;1.48;;;4.00;99.90;;;;;;4879233;29;20288;-69
2021/01/04 10:04:49;;;;;;;1.30;1.30;;;4.00;99.90;;;;;;4880771;29;20283;-69
2021/01/04 10:07:19;;;;;;;4.88;1.50;;;4.00;99.90;;;;;;4882798;29;20284;-69
2021/01/04 10:09:48;;;;;;;1.15;1.15;;;4.00;99.90;;;;;;4893870;29;20262;-69
2021/01/04 10:12:18;;;;;;;1.00;1.00;;;3.90;99.90;;;;;;4884754;29;20296;-69
2021/01/04 10:14:45;;;;;;;1.00;1.00;;;3.90;99.90;;;;;;4882103;29;20302;-69
2021/01/04 10:17:12;;;;;;;2.83;1.73;;;4.00;99.90;;;;;;4883696;29;20619;-68
2021/01/04 10:19:43;;;;;;;2.45;1.20;;;4.00;99.90;;;;;;4881971;29;20239;-68
2021/01/04 10:22:13;;;;;;;1.48;1.25;;;4.00;99.90;;;;;;4886630;29;20231;-68
2021/01/04 10:24:50;;;;;;;1.10;1.10;;;4.00;99.90;;;;;;4892698;29;20629;-69
2021/01/04 10:27:18;;;;;;;1.20;1.10;;;4.00;99.90;;;;;;4891329;29;20298;-69
2021/01/04 10:29:50;;;;;;;2.40;1.50;;;4.00;99.90;;;;;;4900031;29;20218;-70
2021/01/04 10:32:23;;;;;;;1.02;1.02;;;4.00;99.90;;;;;;4893034;29;20242;-69
2021/01/04 10:34:51;;;;;;;2.85;1.30;;;4.00;99.90;;;;;;4898853;29;20211;-68
2021/01/04 10:37:42;;;;;;;0.90;0.90;;;4.00;99.90;;;;;;4889572;29;20310;-69
2021/01/04 10:40:11;;;;;;;1.00;1.00;;;3.90;99.90;;;;;;4883679;29;20219;-69
2021/01/04 10:42:39;;;;;;;1.30;1.30;;;4.00;99.90;;;;;;4885720;29;20219;-69
2021/01/04 10:45:09;;;;;;;2.00;1.90;;;4.00;99.90;;;;;;4886174;29;20207;-69
2021/01/04 10:47:44;;;;;;;1.40;1.27;;;3.90;99.90;;;;;;4882632;29;20288;-69
2021/01/04 10:50:15;;;;;;;2.40;1.27;;;3.90;99.90;;;;;;4880264;29;20210;-68
2021/01/04 10:52:53;;;;;;;2.63;1.08;;;3.90;99.90;;;;;;4892313;29;20211;-69
2021/01/04 10:55:22;;;;;;;1.48;1.40;;;4.00;99.90;;;;;;4895949;29;20283;-70
2021/01/04 10:57:52;;;;;;;2.75;1.60;;;3.90;99.90;;;;;;4892935;29;20305;-69
2021/01/04 11:00:23;;;;;;;1.20;1.20;;;4.00;99.90;;;;;;4882252;29;20311;-69
2021/01/04 11:02:50;;;;;;;2.28;2.10;;;3.90;99.90;;;;;;4880847;29;20223;-70
2021/01/04 11:05:19;;;;;;;3.13;1.52;;;4.00;99.90;;;;;;4880227;29;20534;-70
2021/01/04 11:07:47;;;;;;;2.00;1.83;;;3.90;99.90;;;;;;4882234;29;20207;-70
2021/01/04 11:10:24;;;;;;;3.70;1.63;;;3.90;99.90;;;;;;4880753;29;20220;-70
2021/01/04 11:12:52;;;;;;;1.25;1.25;;;3.90;99.90;;;;;;4883253;29;20204;-69
2021/01/04 11:15:25;;;;;;;1.05;1.05;;;3.90;99.90;;;;;;4883142;29;20212;-69
2021/01/04 11:18:08;;;;;;;1.40;1.30;;;3.90;99.90;;;;;;4892060;29;20227;-69
2021/01/04 11:20:35;;;;;;;0.93;0.93;;;3.90;99.90;;;;;;4886817;29;20232;-70
2021/01/04 11:23:05;;;;;;;1.75;1.65;;;3.90;99.90;;;;;;4892219;29;20203;-70
2021/01/04 11:25:32;;;;;;;1.00;1.00;;;4.00;99.90;;;;;;4881709;29;20252;-69
2021/01/04 11:27:58;;;;;;;2.60;1.30;;;4.00;99.90;;;;;;4892518;29;20203;-69
2021/01/04 11:30:25;;;;;;;1.73;1.63;;;4.00;99.90;;;;;;4900634;29;20215;-69
2021/01/04 11:32:51;;;;;;;0.93;0.93;;;4.00;99.90;;;;;;4897584;29;20208;-71
2021/01/04 11:35:18;;;;;;;1.20;1.15;;;4.00;99.90;;;;;;4882932;29;20212;-70
2021/01/04 11:37:45;;;;;;;1.25;1.20;;;4.00;99.90;;;;;;4890065;29;20211;-68
2021/01/04 11:40:13;;;;;;;1.25;1.20;;;4.00;99.90;;;;;;4899085;29;20215;-68
2021/01/04 11:42:41;;;;;;;1.83;1.80;;;4.00;99.90;;;;;;4887484;29;20668;-69
2021/01/04 11:45:09;;;;;;;1.30;1.30;;;4.00;99.90;;;;;;4885004;29;20207;-67
2021/01/04 11:47:35;;;;;;;1.02;1.02;;;4.00;99.90;;;;;;4890845;29;20204;-71
2021/01/04 11:50:02;;;;;;;1.90;1.90;;;3.90;99.90;;;;;;4883355;29;20207;-68
2021/01/04 11:52:28;;;;;;;1.70;1.60;;;3.90;99.90;;;;;;4889613;29;20231;-69
2021/01/04 11:54:54;;;;;;;1.30;1.30;;;3.90;99.90;;;;;;4895772;29;20218;-69
2021/01/04 11:57:21;;;;;;;2.75;1.45;;;3.90;99.90;;;;;;4886566;29;20211;-69
2021/01/04 11:59:47;;;;;;;2.20;2.03;;;3.90;99.90;;;;;;4898024;29;20238;-69
2021/01/04 12:02:14;;;;;;;2.28;1.52;;;4.00;99.90;;;;;;4883267;29;20294;-69
2021/01/04 12:04:40;;;;;;;1.23;1.23;;;4.00;99.90;;;;;;4883250;29;20212;-69
2021/01/04 12:07:07;;;;;;;1.80;1.70;;;4.00;99.90;;;;;;4883998;29;20208;-68
2021/01/04 12:09:35;;;;;;;2.50;2.00;;;3.90;99.90;;;;;;4884645;29;20306;-68
2021/01/04 12:12:01;;;;;;;1.38;1.38;;;3.90;99.90;;;;;;4882189;29;20234;-69
2021/01/04 12:14:28;;;;;;;1.45;1.45;;;3.90;99.90;;;;;;4887273;29;20215;-68
2021/01/04 12:16:54;;;;;;;1.80;1.70;;;3.90;99.90;;;;;;4893598;29;20199;-69
2021/01/04 12:19:21;;;;;;;1.35;1.25;;;3.90;99.90;;;;;;4878649;29;20255;-69
2021/01/04 12:21:47;;;;;;;2.08;1.98;;;3.80;99.90;;;;;;4879019;29;20228;-68
2021/01/04 12:24:13;;;;;;;1.60;1.60;;;3.80;99.90;;;;;;4881206;29;20283;-69
2021/01/04 12:26:39;;;;;;;2.17;2.08;;;3.80;99.90;;;;;;4886669;29;20590;-68
2021/01/04 12:29:05;;;;;;;6.93;2.80;;;3.80;99.90;;;;;;4879246;29;20288;-69
2021/01/04 12:31:38;;;;;;;2.15;2.05;;;3.90;99.90;;;;;;4878885;29;20240;-68
2021/01/04 12:34:04;;;;;;;2.10;1.98;;;3.80;99.90;;;;;;4893736;29;20354;-70
2021/01/04 12:36:30;;;;;;;2.10;2.03;;;3.80;99.90;;;;;;4878881;29;20216;-69
2021/01/04 12:38:56;;;;;;;1.60;1.48;;;3.80;99.90;;;;;;4879008;29;20247;-68
2021/01/04 12:41:22;;;;;;;2.22;2.03;;;3.80;99.90;;;;;;4878650;29;20704;-69
2021/01/04 12:43:49;;;;;;;2.30;2.20;;;3.80;99.90;;;;;;4879010;29;20208;-69
2021/01/04 12:46:16;;;;;;;1.70;1.60;;;3.80;99.90;;;;;;4887643;29;20572;-69
2021/01/04 12:48:43;;;;;;;1.05;1.05;;;3.80;99.90;;;;;;4883658;29;20208;-69
2021/01/04 12:51:10;;;;;;;1.70;1.60;;;3.80;99.90;;;;;;4881762;29;20739;-69
2021/01/04 12:53:36;;;;;;;1.40;1.40;;;3.80;99.90;;;;;;4889759;29;20293;-69
2021/01/04 12:56:05;;;;;;;2.03;1.90;;;3.80;99.90;;;;;;4889903;29;20207;-69
2021/01/04 12:58:31;;;;;;;1.88;1.77;;;3.80;99.90;;;;;;4885394;29;20468;-69
2021/01/04 13:00:57;;;;;;;2.13;2.08;;;3.90;99.90;;;;;;4878161;29;20383;-69
2021/01/04 13:03:23;;;;;;;1.55;1.55;;;3.80;99.90;;;;;;4887664;29;20538;-69
2021/01/04 13:05:50;;;;;;;1.40;1.40;;;3.80;99.90;;;;;;4896497;29;20682;-69
2021/01/04 13:08:17;;;;;;;1.75;1.65;;;3.80;99.90;;;;;;4893046;29;20231;-68
2021/01/04 13:10:43;;;;;;;2.22;2.00;;;3.80;99.90;;;;;;4878226;29;20228;-68
2021/01/04 13:13:09;;;;;;;1.58;1.58;;;3.80;99.90;;;;;;4883967;29;20203;-68
2021/01/04 13:15:35;;;;;;;2.58;2.47;;;3.80;99.90;;;;;;4896887;29;20214;-68
2021/01/04 13:18:02;;;;;;;1.02;1.02;;;3.80;99.90;;;;;;4892673;29;20230;-68
2021/01/04 13:20:28;;;;;;;1.70;1.60;;;3.80;99.90;;;;;;4880278;29;20231;-68
2021/01/04 13:22:55;;;;;;;3.80;1.85;;;3.80;99.90;;;;;;4884951;29;20207;-68
2021/01/04 13:25:21;;;;;;;1.20;1.20;;;3.70;99.90;;;;;;4897114;29;20210;-69
2021/01/04 13:27:47;;;;;;;1.85;1.75;;;3.70;99.90;;;;;;4891073;29;20235;-67
2021/01/04 13:30:14;;;;;;;1.63;1.52;;;3.70;99.90;;;;;;4877931;29;20204;-67
2021/01/04 13:32:40;;;;;;;1.70;1.70;;;3.70;99.90;;;;;;4887138;29;20203;-68
2021/01/04 13:35:08;;;;;;;3.58;3.33;;;3.70;99.90;;;;;;4895907;29;20211;-70
2021/01/04 13:37:34;;;;;;;2.22;2.13;;;3.70;99.90;;;;;;4888716;29;20212;-68
2021/01/04 13:40:03;;;;;;;2.80;2.20;;;3.70;99.90;;;;;;4877609;29;20657;-67
2021/01/04 13:42:29;;;;;;;1.90;1.80;;;3.70;99.90;;;;;;4882294;29;20257;-68
2021/01/04 13:44:55;;;;;;;2.63;2.53;;;3.70;99.90;;;;;;4896781;29;20226;-68
2021/01/04 13:47:21;;;;;;;1.70;1.70;;;3.70;99.90;;;;;;4890861;29;20585;-69
2021/01/04 13:49:48;;;;;;;1.58;1.55;;;3.70;99.90;;;;;;4877006;29;20226;-70
2021/01/04 13:52:18;;;;;;;1.83;1.73;;;3.70;99.90;;;;;;4881194;29;20322;-68
2021/01/04 13:54:45;;;;;;;3.15;2.00;;;3.70;99.90;;;;;;4896766;29;20631;-68
2021/01/04 13:57:12;;;;;;;1.70;1.52;;;3.70;99.90;;;;;;4880749;29;20218;-68
2021/01/04 13:59:38;;;;;;;1.95;1.80;;;3.70;99.90;;;;;;4896400;29;20230;-68
2021/01/04 14:02:08;;;;;;;3.60;2.35;;;3.70;99.90;;;;;;4893316;29;20239;-68
2021/01/04 14:04:34;;;;;;;1.52;1.42;;;3.70;99.90;;;;;;4877236;29;20673;-69
2021/01/04 14:07:00;;;;;;;2.30;2.20;;;3.70;99.90;;;;;;4878687;29;20219;-69
2021/01/04 14:09:26;;;;;;;2.20;2.10;;;3.80;99.90;;;;;;4889918;29;20294;-69
2021/01/04 14:11:54;;;;;;;5.00;2.15;;;3.70;99.90;;;;;;4876963;29;20235;-69
2021/01/04 14:14:22;;;;;;;1.70;1.60;;;3.80;99.90;;;;;;4895888;29;20550;-69
2021/01/04 14:16:48;;;;;;;2.60;2.50;;;3.80;99.90;;;;;;4882346;29;20208;-69
2021/01/04 14:19:15;;;;;;;2.70;2.20;;;3.70;99.90;;;;;;4876954;29;20378;-69
2021/01/04 14:21:46;;;;;;;1.50;1.50;;;3.70;99.90;;;;;;4884290;29;20231;-69
2021/01/04 14:24:13;;;;;;;1.77;1.67;;;3.70;99.90;;;;;;4878695;29;20216;-69
2021/01/04 14:26:39;;;;;;;1.60;1.60;;;3.70;99.90;;;;;;4884937;29;20212;-69
2021/01/04 14:29:06;;;;;;;1.75;1.75;;;3.70;99.90;;;;;;4879706;29;20215;-69
2021/01/04 14:31:48;;;;;;;1.55;1.45;;;3.70;99.90;;;;;;4877247;29;20267;-69
2021/01/04 14:34:15;;;;;;;1.90;1.80;;;3.70;99.90;;;;;;4876441;29;20208;-68
2021/01/04 14:36:41;;;;;;;1.92;1.83;;;3.70;99.90;;;;;;4889853;29;20203;-68
2021/01/04 14:39:10;;;;;;;1.70;1.70;;;3.70;99.90;;;;;;4885448;29;20660;-69
2021/01/04 14:41:37;;;;;;;1.10;1.10;;;3.70;99.90;;;;;;4880566;29;20291;-69
2021/01/04 14:44:04;;;;;;;1.50;1.50;;;3.70;99.90;;;;;;4877882;29;20238;-69
2021/01/04 14:46:31;;;;;;;2.17;2.08;;;3.70;99.90;;;;;;4882163;29;20256;-69
2021/01/04 14:48:58;;;;;;;1.85;1.77;;;3.60;99.90;;;;;;4892027;29;20271;-69
2021/01/04 14:51:24;;;;;;;1.70;1.70;;;3.70;99.90;;;;;;4889741;29;20256;-69
2021/01/04 14:53:50;;;;;;;1.77;1.73;;;3.70;99.90;;;;;;4894847;29;20259;-69
2021/01/04 14:56:20;;;;;;;1.98;1.98;;;3.60;99.90;;;;;;4893585;29;20673;-69
2021/01/04 14:58:48;;;;;;;2.00;1.90;;;3.60;99.90;;;;;;4896215;29;20227;-69
2021/01/04 15:01:15;;;;;;;1.38;1.38;;;3.60;99.90;;;;;;4891550;29;20256;-69
2021/01/04 15:03:43;;;;;;;1.98;1.88;;;3.60;99.90;;;;;;4885009;29;20216;-69
2021/01/04 15:06:17;;;;;;;1.65;1.65;;;3.60;99.90;;;;;;4880090;29;20235;-69
2021/01/04 15:08:43;;;;;;;2.22;2.03;;;3.60;99.90;;;;;;4880668;29;20208;-69
2021/01/04 15:11:09;;;;;;;4.22;2.30;;;3.60;99.90;;;;;;4880932;29;20332;-69
2021/01/04 15:13:35;;;;;;;1.20;1.10;;;3.60;99.90;;;;;;4880360;29;20215;-69
2021/01/04 15:16:01;;;;;;;2.63;2.45;;;3.60;99.90;;;;;;4880551;29;20220;-69
2021/01/04 15:18:28;;;;;;;2.13;1.92;;;3.60;99.90;;;;;;4874508;29;20555;-69
2021/01/04 15:20:54;;;;;;;2.20;2.10;;;3.60;99.90;;;;;;4892176;29;20712;-69
2021/01/04 15:23:22;;;;;;;1.50;1.50;;;3.50;99.90;;;;;;4880250;29;20658;-69
2021/01/04 15:25:49;;;;;;;2.92;2.72;;;3.60;99.90;;;;;;4880772;29;20595;-68
2021/01/04 15:28:15;;;;;;;3.30;3.10;;;3.60;99.90;;;;;;4881004;29;20524;-68
2021/01/04 15:30:41;;;;;;;3.15;3.05;;;3.60;99.90;;;;;;4880385;29;20240;-67
2021/01/04 15:33:07;;;;;;;1.95;1.85;;;3.60;99.90;;;;;;4897107;29;20208;-68
2021/01/04 15:35:33;;;;;;;2.38;2.28;;;3.50;99.90;;;;;;4882374;29;20314;-68
2021/01/04 15:38:00;;;;;;;1.52;1.52;;;3.60;99.90;;;;;;4885034;29;20207;-69
2021/01/04 15:40:26;;;;;;;2.60;2.50;;;3.50;99.90;;;;;;4883814;29;20212;-69
2021/01/04 15:42:53;;;;;;;2.55;2.35;;;3.50;99.90;;;;;;4882917;29;20215;-68
2021/01/04 15:45:19;;;;;;;2.38;2.28;;;3.50;99.90;;;;;;4880369;29;20257;-69
2021/01/04 15:47:46;;;;;;;2.50;2.20;;;3.50;99.90;;;;;;4892100;29;20297;-69
2021/01/04 15:50:13;;;;;;;2.25;2.25;;;3.50;99.90;;;;;;4893009;29;20207;-69
2021/01/04 15:52:39;;;;;;;2.03;1.92;;;3.50;99.90;;;;;;4890061;29;20211;-69
2021/01/04 15:55:06;;;;;;;3.20;2.67;;;3.40;99.90;;;;;;4899069;29;20230;-68
2021/01/04 15:57:33;;;;;;;2.72;2.63;;;3.40;99.90;;;;;;4890862;29;20211;-68
2021/01/04 15:59:59;;;;;;;3.13;2.88;;;3.40;99.90;;;;;;4879885;29;20220;-69
2021/01/04 16:02:26;;;;;;;2.72;2.53;;;3.40;99.90;;;;;;4883585;29;20240;-69
2021/01/04 16:04:52;;;;;;;2.22;1.98;;;3.40;99.90;;;;;;4880119;29;20205;-69
2021/01/04 16:07:20;;;;;;;2.70;2.50;;;3.40;99.90;;;;;;4893491;29;20223;-68
2021/01/04 16:09:48;;;;;;;2.83;2.65;;;3.40;99.90;;;;;;4885935;29;20211;-69
2021/01/04 16:12:15;;;;;;;2.38;2.35;;;3.40;99.90;;;;;;4896584;29;20259;-68
2021/01/04 16:14:42;;;;;;;2.72;2.53;;;3.40;99.90;;;;;;4898101;29;20664;-69
2021/01/04 16:17:08;;;;;;;2.60;2.40;;;3.40;99.90;;;;;;4893252;29;20672;-69
2021/01/04 16:19:35;;;;;;;2.60;2.50;;;3.40;99.90;;;;;;4890676;29;20573;-69
2021/01/04 16:22:03;;;;;;;2.45;2.45;;;3.40;99.90;;;;;;4888725;29;20602;-69
2021/01/04 16:24:30;;;;;;;3.70;3.25;;;3.40;99.90;;;;;;4888583;29;20215;-71
2021/01/04 16:26:56;;;;;;;2.78;2.67;;;3.40;99.90;;;;;;4889077;29;20203;-69
2021/01/04 16:29:22;;;;;;;2.63;2.42;;;3.40;99.90;;;;;;4899006;29;20640;-69
2021/01/04 16:31:51;;;;;;;3.60;3.30;;;3.40;99.90;;;;;;4887203;29;20230;-69
2021/01/04 16:34:18;;;;;;;1.60;1.60;;;3.40;99.90;;;;;;4884858;29;21036;-69
2021/01/04 16:36:45;;;;;;;2.10;2.00;;;3.40;99.90;;;;;;4892584;29;20231;-69
2021/01/04 16:39:12;;;;;;;4.53;2.28;;;3.40;99.90;;;;;;4898341;29;20254;-69
2021/01/04 16:41:38;;;;;;;1.95;1.85;;;3.30;99.90;;;;;;4886860;29;20250;-69
2021/01/04 16:44:05;;;;;;;1.63;1.50;;;3.30;99.90;;;;;;4889671;29;20200;-69
2021/01/04 16:46:35;;;;;;;1.55;1.50;;;3.20;99.90;;;;;;4898528;29;20683;-70
2021/01/04 16:49:02;;;;;;;1.10;1.10;;;3.10;99.90;;;;;;4897979;29;20214;-68
2021/01/04 16:51:28;;;;;;;1.15;1.15;;;3.00;99.90;;;;;;4880672;29;20231;-68
2021/01/04 16:53:54;;;;;;;1.30;1.30;;;2.90;99.90;;;;;;4889321;29;20264;-67
2021/01/04 16:56:21;;;;;;;1.10;1.10;;;2.90;99.90;;;;;;4889688;29;20204;-67
2021/01/04 16:58:47;;;;;;;1.10;1.10;;;2.90;99.90;;;;;;4878336;29;20676;-67
2021/01/04 17:01:15;;;;;;;1.02;1.02;;;2.80;99.90;;;;;;4895978;29;20243;-67
2021/01/04 17:03:46;;;;;;;1.10;1.10;;;2.80;99.90;;;;;;4892970;29;20291;-68
2021/01/04 17:06:14;;;;;;;1.20;1.20;;;2.80;99.90;;;;;;4891772;29;20207;-68
2021/01/04 17:08:44;;;;;;;1.38;1.38;;;2.80;99.90;;;;;;4884809;29;20234;-69
2021/01/04 17:11:10;;;;;;;1.50;1.50;;;2.80;99.90;;;;;;4879718;29;20220;-68
2021/01/04 17:13:36;;;;;;;1.30;1.30;;;2.70;99.90;;;;;;4894065;29;20628;-68
2021/01/04 17:16:03;;;;;;;2.25;2.05;;;2.70;99.90;;;;;;4883764;29;20215;-68
2021/01/04 17:18:29;;;;;;;2.05;1.85;;;2.70;99.90;;;;;;4882567;29;20227;-68
2021/01/04 17:20:55;;;;;;;2.03;1.92;;;2.60;99.90;;;;;;4883938;29;20278;-68
2021/01/04 17:23:22;;;;;;;2.10;2.10;;;2.60;99.90;;;;;;4890108;29;20262;-68
2021/01/04 17:25:48;;;;;;;2.50;2.40;;;2.60;99.90;;;;;;4892842;29;20211;-67
2021/01/04 17:28:14;;;;;;;2.97;2.78;;;2.50;99.90;;;;;;4895034;29;20203;-68
2021/01/04 17:30:40;;;;;;;2.58;2.42;;;2.50;99.90;;;;;;4884312;29;20736;-71
2021/01/04 17:33:07;;;;;;;2.83;2.60;;;2.50;99.90;;;;;;4881112;29;20672;-70
2021/01/04 17:35:33;;;;;;;2.80;2.70;;;2.50;99.90;;;;;;4879176;29;20685;-69
2021/01/04 17:37:59;;;;;;;3.35;3.05;;;2.50;99.90;;;;;;4884015;29;20204;-72
2021/01/04 17:40:26;;;;;;;3.15;3.05;;;2.50;99.90;;;;;;4880543;29;20417;-71
2021/01/04 17:42:52;;;;;;;3.90;3.20;;;2.50;99.90;;;;;;4890834;29;20202;-70
2021/01/04 17:45:19;;;;;;;2.63;2.53;;;2.50;99.90;;;;;;4890643;29;20359;-70
2021/01/04 17:47:46;;;;;;;3.45;3.33;;;2.50;99.90;;;;;;4889323;29;20203;-70
2021/01/04 17:50:14;;;;;;;3.78;3.58;;;2.40;99.90;;;;;;4888473;29;20579;-70
2021/01/04 17:52:40;;;;;;;2.85;2.75;;;2.40;99.90;;;;;;4868068;29;20975;-70
2021/01/04 17:55:07;;;;;;;2.97;2.88;;;2.40;99.90;;;;;;4875346;29;20295;-69
2021/01/04 17:57:34;;;;;;;3.15;3.05;;;2.40;99.90;;;;;;4877029;29;20212;-69
2021/01/04 18:00:01;;;;;;;3.42;3.22;;;2.40;99.90;;;;;;4879630;29;20232;-68
2021/01/04 18:02:27;;;;;;;2.25;2.25;;;2.40;99.90;;;;;;4874944;29;20247;-68
2021/01/04 18:04:54;;;;;;;2.42;2.33;;;2.40;99.90;;;;;;4893978;29;20620;-68
2021/01/04 18:07:20;;;;;;;3.85;3.20;;;2.40;99.90;;;;;;4892907;29;20301;-68
2021/01/04 18:09:46;;;;;;;2.72;2.60;;;2.40;99.90;;;;;;4885755;29;20203;-70
2021/01/04 18:12:12;;;;;;;3.05;2.85;;;2.40;99.90;;;;;;4874962;29;20231;-69
2021/01/04 18:14:40;;;;;;;2.45;2.35;;;2.40;99.90;;;;;;4892208;29;20286;-69
2021/01/04 18:17:06;;;;;;;3.08;2.88;;;2.40;99.90;;;;;;4885697;29;20591;-69
2021/01/04 18:19:32;;;;;;;3.03;2.92;;;2.40;99.90;;;;;;4883926;29;20228;-69
2021/01/04 18:21:59;;;;;;;3.28;2.97;;;2.50;99.90;;;;;;4880909;29;20227;-68